Hauptseite
METAR-TAF:

METAR-TAF

Flughäfen :

Flughafen Friedrichshafen

Friedrichshafen, Deutschland

Breite: 47-40N, Länge: 009-31E, Höhe: 416 m

Beobachtung

Neuester Wetterbericht von vor 43 Minuten, um 18:50 UTC
Wind 5 kt aus Nord
Temperatur 9°C
Luftfeuchtigkeit 66%
Luftdruck 1025 hPa
Sichtweite 10 km oder mehr

METAR: EDNY 211850Z AUTO 36005KT 9999 // NCD 09/03 Q1025

Zeit: 21:33 (19:33 UTC)

Prognose

Neuester Wetterbericht von vor 2 Stunden und 33 Minuten, um 17:00 UTC
Gültige Prognose vom 21 um 18 UTC bis 22 um 18 UTC
Wind 7 kt aus Nord/Nordost
Sichtweite 10 km oder mehr
keine Wolken unter 1500 m und keine Kumulonimbus oder Gewitterwolken
Zeitweise
vom 21 um 22 UTC bis 22 um 08 UTC
Wind 3 kt aus unterschiedlichen Richtungen
Sichtweite: 2000 m
Durchbrochene Bewölkung in der Höhe von 600 ft
Nebelschwaden

TAF: EDNY 211700Z 2118/2218 02007KT CAVOK TEMPO 2122/2208 VRB03KT 2000 BCFG BKN006

Wetterbeobachtungen und Prognosen von mehr als 4000 Flughäfen (METAR und TAF Bericht).

Die verfügbaren Stationen werden durch gelbe und rote Markierungen auf der Karte dargestellt.

Führen Sie die Maus auf sie, um den Namen der Station zu sehen.

Darauf klicken, um die Beobachtung von Wetterbeobachtungen und Prognosen zu sehen.

Um die Karte zu ändern : klicken Sie auf den grünen Tasten mit einem schwarzen Kreuz Zum Vergrößern, auf den grünen Button mit einem Gedankenstrich zu verkleinern, oder auf die grünen Pfeile für benachbarte Karten.


METAR-TAF: